Time;durP1;ratioP1;P1;durP2;ratioP2;P2;SDS_P1;SDS_P2;PMS_P1;PMS_P2;Temp;Humidity;BMP_temperature;BMP_pressure;BME280_temperature;BME280_humidity;BME280_pressure;Samples;Min_cycle;Max_cycle;Signal;HPM_P1;HPM_P2
2022/10/12 00:02:20;;;;;;;20.20;18.48;;;;;;;16.88;71.10;101926.13;5005011;28;103985;-55
2022/10/12 00:04:47;;;;;;;20.37;18.87;;;;;;;16.86;70.78;101931.94;5009198;28;102435;-56
2022/10/12 00:07:13;;;;;;;20.85;19.13;;;;;;;16.87;71.21;101928.06;4995283;28;102422;-56
2022/10/12 00:09:40;;;;;;;22.08;20.42;;;;;;;16.86;70.63;101931.94;4995208;28;102243;-55
2022/10/12 00:12:10;;;;;;;22.67;21.00;;;;;;;16.86;71.16;101936.63;4988251;28;103895;-56
2022/10/12 00:14:37;;;;;;;20.15;18.50;;;;;;;16.87;71.29;101933.56;4977534;28;102001;-55
2022/10/12 00:17:06;;;;;;;21.58;19.77;;;;;;;16.87;70.76;101927.25;4989091;28;102314;-55
2022/10/12 00:19:34;;;;;;;21.08;19.40;;;;;;;16.86;70.82;101926.44;4987475;28;102270;-55
2022/10/12 00:22:01;;;;;;;20.52;18.92;;;;;;;16.87;70.71;101928.06;4997002;28;103929;-55
2022/10/12 00:24:30;;;;;;;19.90;18.40;;;;;;;16.85;70.60;101930.31;4996194;28;102257;-56
2022/10/12 00:26:57;;;;;;;21.40;19.60;;;;;;;16.86;70.60;101920.94;4991559;28;102297;-55
2022/10/12 00:29:23;;;;;;;19.88;18.38;;;;;;;16.85;71.06;101930.31;4984082;28;102325;-55
2022/10/12 00:31:52;;;;;;;22.33;20.58;;;;;;;16.85;70.93;101915.75;4995416;28;103885;-55
2022/10/12 00:34:19;;;;;;;22.25;20.48;;;;;;;16.85;70.73;101919.31;4992752;28;102218;-55
2022/10/12 00:36:47;;;;;;;21.30;19.60;;;;;;;16.85;71.19;101922.06;4988044;28;105112;-55
2022/10/12 00:39:13;;;;;;;22.60;20.75;;;;;;;16.84;71.30;101934.16;4980129;28;101993;-56
2022/10/12 00:41:42;;;;;;;21.15;19.40;;;;;;;16.86;71.23;101931.94;4994391;28;104665;-55
2022/10/12 00:44:34;;;;;;;23.13;21.02;;;;;;;16.84;71.06;101925.91;4997362;28;102168;-55
2022/10/12 00:47:04;;;;;;;19.85;18.23;;;;;;;16.85;71.07;101919.31;4995752;28;102395;-55
2022/10/12 00:49:33;;;;;;;21.77;20.10;;;;;;;16.85;71.12;101924.81;4994688;28;102600;-56
2022/10/12 00:52:04;;;;;;;20.77;19.08;;;;;;;16.85;70.95;101913.81;4996284;28;104185;-55
2022/10/12 00:54:35;;;;;;;20.65;19.05;;;;;;;16.84;70.68;101923.16;4987211;28;102259;-56
2022/10/12 00:57:04;;;;;;;21.90;19.48;;;;;;;16.85;70.92;101930.31;5007571;28;101947;-55
2022/10/12 00:59:35;;;;;;;19.58;18.15;;;;;;;16.85;71.17;101913.81;4997395;28;102359;-56
2022/10/12 01:02:02;;;;;;;20.75;19.20;;;;;;;16.85;70.61;101915.75;5012171;28;104035;-56
2022/10/12 01:04:31;;;;;;;21.75;20.08;;;;;;;16.84;70.98;101916.81;4977358;28;102149;-55
2022/10/12 01:06:58;;;;;;;;;;;;;;;16.84;71.11;101917.66;5003302;28;102426;-55
2022/10/12 01:09:27;;;;;;;18.92;17.50;;;;;;;16.83;70.69;101920.69;5014716;28;102458;-55
2022/10/12 01:11:55;;;;;;;19.60;18.13;;;;;;;16.85;71.21;101921.25;5000703;28;103919;-56
2022/10/12 01:14:25;;;;;;;19.27;17.77;;;;;;;16.84;70.64;101930.56;5016999;28;102221;-56
2022/10/12 01:16:57;;;;;;;19.08;17.60;;;;;;;16.83;71.39;101929.75;5003803;28;102454;-55
2022/10/12 01:19:48;;;;;;;19.23;17.65;;;;;;;16.84;71.28;101928.66;4977832;28;102236;-55
2022/10/12 01:22:18;;;;;;;20.00;18.30;;;;;;;16.84;71.29;101931.41;4979556;28;104733;-56
2022/10/12 01:24:53;;;;;;;22.20;20.50;;;;;;;16.84;70.58;101930.56;4990924;28;102427;-55
2022/10/12 01:27:45;;;;;;;20.55;18.98;;;;;;;16.82;71.03;101930.88;4996137;28;102284;-55
2022/10/12 01:30:24;;;;;;;20.02;18.42;;;;;;;16.83;71.08;101932.50;4996332;28;102062;-55
2022/10/12 01:33:13;;;;;;;19.65;18.17;;;;;;;16.82;71.25;101930.88;4995745;28;103901;-55
2022/10/12 01:35:52;;;;;;;20.48;18.90;;;;;;;16.83;70.82;101938.00;4979362;28;102294;-56
2022/10/12 01:38:39;;;;;;;18.77;17.35;;;;;;;16.82;71.23;101930.88;4976034;28;102210;-56
2022/10/12 01:41:12;;;;;;;19.10;17.63;;;;;;;16.82;71.50;101936.38;4977356;28;102169;-55
2022/10/12 01:43:41;;;;;;;22.67;21.00;;;;;;;16.82;70.84;101930.88;4978787;28;103903;-55
2022/10/12 01:46:38;;;;;;;21.90;20.25;;;;;;;16.81;70.91;101929.22;4994944;28;102402;-55
2022/10/12 01:49:05;;;;;;;20.60;19.00;;;;;;;16.83;70.82;101932.50;4994407;28;102076;-55
2022/10/12 01:51:57;;;;;;;20.95;19.35;;;;;;;16.81;71.04;101940.22;4978734;28;102146;-56
2022/10/12 01:54:34;;;;;;;20.02;18.52;;;;;;;16.81;70.91;101929.22;4981288;28;103988;-56
2022/10/12 01:57:07;;;;;;;21.08;19.35;;;;;;;16.80;71.40;101939.41;4996430;28;102074;-55
2022/10/12 01:59:43;;;;;;;23.40;21.70;;;;;;;16.81;70.92;101940.22;4995437;28;102343;-60
2022/10/12 02:02:16;;;;;;;21.40;19.92;;;;;;;16.80;70.95;101939.41;4996034;28;102249;-55
2022/10/12 02:04:48;;;;;;;21.08;19.58;;;;;;;16.81;71.49;101937.47;4991856;28;108995;-55
2022/10/12 02:07:24;;;;;;;23.20;21.60;;;;;;;16.81;71.46;101937.47;4996136;28;102227;-55
2022/10/12 02:09:54;;;;;;;20.80;19.25;;;;;;;16.80;71.40;101942.16;4991736;28;102228;-55
2022/10/12 02:12:23;;;;;;;23.48;21.85;;;;;;;16.81;71.04;101945.72;4995299;28;102364;-55
2022/10/12 02:14:55;;;;;;;21.80;20.25;;;;;;;16.80;71.38;101941.31;4990218;28;104049;-55
2022/10/12 02:17:25;;;;;;;20.95;19.45;;;;;;;16.80;71.21;101942.16;4983503;28;102505;-55
2022/10/12 02:19:55;;;;;;;21.73;20.15;;;;;;;16.79;71.11;101945.16;4995007;28;102384;-55
2022/10/12 02:22:25;;;;;;;22.23;20.45;;;;;;;16.79;71.19;101937.75;4994861;28;102534;-55
2022/10/12 02:24:57;;;;;;;23.08;21.35;;;;;;;16.79;71.07;101942.41;4991934;28;103783;-55
2022/10/12 02:27:25;;;;;;;22.10;20.33;;;;;;;16.80;71.49;101938.56;4994607;28;102298;-55
2022/10/12 02:29:52;;;;;;;21.67;20.08;;;;;;;16.80;71.28;101946.81;4995446;28;102231;-56
2022/10/12 02:32:23;;;;;;;22.30;20.75;;;;;;;16.80;71.40;101944.91;4993542;28;102177;-55
2022/10/12 02:34:57;;;;;;;19.38;17.95;;;;;;;16.80;71.17;101944.06;4985918;28;103865;-55
2022/10/12 02:37:33;;;;;;;19.40;17.95;;;;;;;16.79;71.33;101943.25;4994163;28;102465;-56
2022/10/12 02:40:07;;;;;;;24.08;22.42;;;;;;;16.80;71.49;101949.56;4995326;28;102187;-55
2022/10/12 02:42:37;;;;;;;22.10;20.45;;;;;;;16.79;71.36;101945.16;4995231;28;102638;-55
2022/10/12 02:45:08;;;;;;;20.02;18.67;;;;;;;16.79;71.15;101948.75;4980221;28;103896;-55
2022/10/12 02:47:36;;;;;;;22.45;20.85;;;;;;;16.78;71.02;101941.59;4983628;28;102282;-55
2022/10/12 02:50:06;;;;;;;22.80;21.03;;;;;;;16.78;71.18;101938.84;4993471;28;102331;-55
2022/10/12 02:52:33;;;;;;;19.77;18.17;;;;;;;16.78;71.21;101946.28;4976909;28;102409;-55
2022/10/12 02:55:00;;;;;;;20.67;19.33;;;;;;;16.80;71.21;101949.56;4980492;28;104189;-55
2022/10/12 02:57:26;;;;;;;22.52;21.02;;;;;;;16.78;71.51;101947.09;4993337;28;102307;-55
2022/10/12 02:59:53;;;;;;;23.40;21.75;;;;;;;16.79;71.08;101942.41;4994777;28;102051;-55
2022/10/12 03:02:19;;;;;;;21.30;19.83;;;;;;;16.78;71.13;101943.53;4994262;28;102373;-55
2022/10/12 03:04:46;;;;;;;22.45;20.95;;;;;;;16.79;71.12;101947.91;4990626;28;103879;-55
2022/10/12 03:07:15;;;;;;;23.42;21.73;;;;;;;16.79;70.97;101947.91;4980322;28;102256;-55
2022/10/12 03:09:41;;;;;;;23.08;21.50;;;;;;;16.78;71.04;101940.78;4994092;28;102339;-55
2022/10/12 03:12:08;;;;;;;21.75;20.27;;;;;;;16.77;70.97;101939.16;4985946;28;102111;-55
2022/10/12 03:14:36;;;;;;;22.80;21.30;;;;;;;16.77;71.50;101942.72;4978232;28;103873;-55
2022/10/12 03:17:03;;;;;;;23.48;21.90;;;;;;;16.77;71.48;101939.97;4987359;28;102885;-55
2022/10/12 03:19:30;;;;;;;22.73;21.08;;;;;;;16.78;70.93;101940.78;4998135;28;102456;-55
2022/10/12 03:21:57;;;;;;;21.38;19.88;;;;;;;16.78;71.54;101946.28;4985853;28;102170;-56
2022/10/12 03:24:25;;;;;;;20.92;19.33;;;;;;;16.77;71.27;101945.47;4997779;28;107858;-56
2022/10/12 03:26:51;;;;;;;22.03;20.50;;;;;;;16.78;71.29;101944.34;4996723;28;102297;-55
2022/10/12 03:29:18;;;;;;;20.73;19.27;;;;;;;16.77;71.18;101944.66;4978581;28;102400;-55
2022/10/12 03:31:44;;;;;;;21.48;19.95;;;;;;;16.77;71.12;101947.41;4979874;28;102278;-55
2022/10/12 03:34:11;;;;;;;22.05;20.52;;;;;;;16.76;70.98;101943.81;4984783;28;104061;-55
2022/10/12 03:36:37;;;;;;;20.20;18.90;;;;;;;16.77;71.21;101942.72;4994733;28;103100;-55
2022/10/12 03:39:04;;;;;;;22.13;20.55;;;;;;;16.77;71.27;101941.91;4998181;28;102545;-55
2022/10/12 03:41:32;;;;;;;22.35;20.65;;;;;;;16.77;71.21;101939.16;4999428;28;102172;-55
2022/10/12 03:43:59;;;;;;;22.80;21.38;;;;;;;16.76;71.30;101943.81;4995576;28;104038;-55
2022/10/12 03:46:25;;;;;;;21.90;20.42;;;;;;;16.76;71.21;101943.00;4996576;28;102179;-56
2022/10/12 03:48:52;;;;;;;18.70;17.48;;;;;;;16.77;71.12;101944.66;4997386;28;102196;-55
2022/10/12 03:51:19;;;;;;;21.60;20.10;;;;;;;16.77;71.07;101939.16;4996334;28;102835;-55
2022/10/12 03:53:45;;;;;;;21.05;19.45;;;;;;;16.76;71.22;101937.50;4997455;28;103862;-55
2022/10/12 03:56:12;;;;;;;20.42;19.02;;;;;;;16.76;71.05;101935.56;4987386;28;102131;-55
2022/10/12 03:58:40;;;;;;;20.80;19.42;;;;;;;16.75;71.43;101933.91;4995195;28;102264;-55
2022/10/12 04:01:06;;;;;;;18.90;17.63;;;;;;;16.76;71.47;101937.50;4998969;28;102196;-55
2022/10/12 04:03:32;;;;;;;20.35;19.00;;;;;;;16.76;71.56;101932.00;4994538;28;104287;-55
2022/10/12 04:05:59;;;;;;;20.90;19.10;;;;;;;16.76;70.99;101937.50;4993412;28;102173;-55
2022/10/12 04:08:27;;;;;;;21.02;19.60;;;;;;;16.77;71.02;101933.66;4993865;28;102252;-55
2022/10/12 04:10:53;;;;;;;19.92;18.58;;;;;;;16.76;71.32;101945.75;4997567;28;102161;-56
2022/10/12 04:13:20;;;;;;;21.85;20.35;;;;;;;16.76;71.44;101940.25;4995604;28;103953;-55
2022/10/12 04:15:49;;;;;;;20.55;19.20;;;;;;;16.76;71.64;101946.56;4997458;28;102216;-55
2022/10/12 04:18:15;;;;;;;20.05;18.80;;;;;;;16.76;71.63;101937.50;4993667;28;102529;-56
2022/10/12 04:20:46;;;;;;;20.55;19.08;;;;;;;16.77;71.32;101939.16;4998250;28;102325;-55
2022/10/12 04:23:13;;;;;;;21.48;20.05;;;;;;;16.76;71.90;101932.00;4995587;28;104197;-56
2022/10/12 04:25:41;;;;;;;20.73;19.35;;;;;;;16.76;71.12;101943.00;4988201;28;102561;-55
2022/10/12 04:28:10;;;;;;;21.42;19.83;;;;;;;16.77;70.99;101939.16;4995075;28;102420;-55
2022/10/12 04:30:36;;;;;;;20.50;19.05;;;;;;;16.77;71.45;101947.41;4997974;28;102145;-55
2022/10/12 04:33:04;;;;;;;20.02;18.77;;;;;;;16.77;71.28;101947.41;4994545;28;103749;-55
2022/10/12 04:35:31;;;;;;;19.40;18.10;;;;;;;16.77;71.31;101944.66;4997186;28;102467;-56
2022/10/12 04:37:58;;;;;;;21.48;20.00;;;;;;;16.76;71.10;101945.75;4997379;28;102029;-56
2022/10/12 04:40:25;;;;;;;19.58;18.23;;;;;;;16.78;71.29;101946.28;4997366;28;102029;-55
2022/10/12 04:42:52;;;;;;;22.77;21.23;;;;;;;16.76;71.41;101951.22;4995279;28;103897;-55
2022/10/12 04:45:19;;;;;;;23.13;21.60;;;;;;;16.78;71.53;101951.78;4993499;28;102142;-55
2022/10/12 04:47:45;;;;;;;21.85;20.35;;;;;;;16.76;71.51;101948.47;4992716;28;102297;-55
2022/10/12 04:50:13;;;;;;;19.75;18.45;;;;;;;16.76;71.37;101954.81;4978055;28;102353;-56
2022/10/12 04:52:40;;;;;;;22.98;21.25;;;;;;;16.76;71.46;101956.72;4988463;28;103918;-56
2022/10/12 04:55:07;;;;;;;21.27;19.85;;;;;;;16.76;71.62;101953.97;4994853;28;102154;-55
2022/10/12 04:57:34;;;;;;;20.70;19.30;;;;;;;16.75;71.50;101952.34;4986813;28;102026;-56
2022/10/12 05:00:01;;;;;;;21.08;19.65;;;;;;;16.75;71.66;101957.84;4995018;28;102353;-57
2022/10/12 05:02:27;;;;;;;21.38;19.98;;;;;;;16.75;71.15;101958.66;4993740;28;103893;-55
2022/10/12 05:04:54;;;;;;;20.48;18.88;;;;;;;16.74;71.17;101950.72;4993931;28;104659;-55
2022/10/12 05:07:22;;;;;;;21.05;19.65;;;;;;;16.74;71.77;101956.22;4996788;28;102386;-56
2022/10/12 05:09:50;;;;;;;20.55;19.15;;;;;;;16.76;71.07;101964.97;4996912;28;102153;-55
2022/10/12 05:12:16;;;;;;;20.83;19.42;;;;;;;16.76;71.19;101959.47;4989059;28;103911;-55
2022/10/12 05:14:43;;;;;;;21.52;20.00;;;;;;;16.76;71.10;101973.22;4977027;28;102357;-55
2022/10/12 05:17:11;;;;;;;19.75;18.38;;;;;;;16.75;71.44;101972.41;4976526;28;102288;-56
2022/10/12 05:19:38;;;;;;;21.38;19.92;;;;;;;16.75;71.14;101964.16;4989900;28;103665;-55
2022/10/12 05:22:04;;;;;;;20.60;19.15;;;;;;;16.76;71.68;101967.72;4994460;28;104111;-55
2022/10/12 05:24:32;;;;;;;20.88;19.48;;;;;;;16.74;71.58;101979.03;4995153;28;102142;-56
2022/10/12 05:26:59;;;;;;;20.30;18.90;;;;;;;16.75;71.56;101982.59;4994477;28;102330;-55
2022/10/12 05:29:26;;;;;;;21.50;19.90;;;;;;;16.75;71.15;101982.59;4997465;28;102246;-55
2022/10/12 05:31:52;;;;;;;21.67;20.27;;;;;;;16.74;71.38;101984.50;4982422;28;104052;-55
2022/10/12 05:34:20;;;;;;;21.38;19.80;;;;;;;16.76;71.39;101986.97;4996436;28;102146;-55
2022/10/12 05:36:46;;;;;;;21.88;20.17;;;;;;;16.75;nan;101990.84;4979601;28;102913;-55
2022/10/12 05:39:12;;;;;;;20.52;19.00;;;;;;;16.75;71.68;101988.09;4981862;28;102457;-56
2022/10/12 05:41:41;;;;;;;22.58;20.98;;;;;;;16.75;71.33;101990.84;4994837;28;103982;-55
2022/10/12 05:44:08;;;;;;;20.15;18.67;;;;;;;16.73;71.59;101999.34;4994637;28;102207;-55
2022/10/12 05:46:34;;;;;;;20.55;18.95;;;;;;;16.76;71.53;102003.47;4991533;28;102308;-55
2022/10/12 05:49:01;;;;;;;20.52;19.10;;;;;;;16.74;71.26;102006.50;4996749;28;102480;-55
2022/10/12 05:51:27;;;;;;;20.58;19.23;;;;;;;16.75;71.69;101999.09;4992856;28;103900;-55
2022/10/12 05:53:54;;;;;;;21.80;20.25;;;;;;;16.74;71.49;102002.94;4996693;28;101928;-55
2022/10/12 05:56:21;;;;;;;24.02;22.38;;;;;;;16.75;71.68;102008.16;4994485;28;102438;-55
2022/10/12 05:58:49;;;;;;;22.08;20.52;;;;;;;16.76;71.11;102008.97;4996903;28;102416;-55
2022/10/12 06:01:16;;;;;;;23.05;21.33;;;;;;;16.77;71.46;102010.63;4990291;28;104022;-59
2022/10/12 06:03:42;;;;;;;23.83;22.33;;;;;;;16.75;71.53;102019.13;4985421;28;102469;-55
2022/10/12 06:06:09;;;;;;;23.15;21.60;;;;;;;16.76;71.44;102022.72;4989468;28;102154;-56
2022/10/12 06:08:36;;;;;;;23.80;21.80;;;;;;;16.75;71.63;102021.88;4990394;28;102773;-56
2022/10/12 06:11:04;;;;;;;22.20;20.45;;;;;;;16.76;71.77;102026.28;4987530;28;104011;-55
2022/10/12 06:13:30;;;;;;;22.98;21.20;;;;;;;16.77;71.73;102021.63;4984925;28;103174;-55
2022/10/12 06:16:08;;;;;;;22.73;21.15;;;;;;;16.77;71.31;102021.63;4987057;28;102120;-56
2022/10/12 06:18:35;;;;;;;21.85;20.15;;;;;;;16.77;71.28;102027.13;4984242;28;102217;-55
2022/10/12 06:21:01;;;;;;;20.70;19.10;;;;;;;16.76;71.67;102026.28;4991566;28;104075;-55
2022/10/12 06:23:28;;;;;;;21.10;19.45;;;;;;;16.77;71.53;102024.38;4990698;28;102204;-55
2022/10/12 06:25:54;;;;;;;22.75;20.92;;;;;;;16.77;71.70;102027.94;4987339;28;102454;-55
2022/10/12 06:28:21;;;;;;;23.45;21.85;;;;;;;16.78;71.45;102028.75;4982180;28;102574;-56
2022/10/12 06:30:52;;;;;;;22.27;20.70;;;;;;;16.79;71.45;102030.41;4990153;28;104082;-55
2022/10/12 06:33:24;;;;;;;21.77;19.88;;;;;;;16.78;71.71;102039.75;4994486;28;101962;-55
2022/10/12 06:35:50;;;;;;;24.85;22.85;;;;;;;16.78;71.15;102037.00;4983121;28;102093;-55
2022/10/12 06:38:18;;;;;;;23.45;21.58;;;;;;;16.78;71.55;102039.75;4996508;28;102239;-55
2022/10/12 06:40:45;;;;;;;24.00;22.08;;;;;;;16.80;72.23;102043.03;4991012;28;104313;-55
2022/10/12 06:43:12;;;;;;;22.70;21.05;;;;;;;16.81;72.08;102044.69;4991334;28;102194;-55
2022/10/12 06:45:39;;;;;;;24.67;22.98;;;;;;;16.81;72.37;102033.69;4984023;28;102399;-55
2022/10/12 06:48:06;;;;;;;23.15;21.35;;;;;;;16.81;72.17;102039.19;4991263;28;102230;-55
2022/10/12 06:50:34;;;;;;;25.42;23.67;;;;;;;16.82;72.88;102035.34;4994937;28;104035;-55
2022/10/12 06:53:01;;;;;;;26.80;25.00;;;;;;;16.83;72.88;102034.22;4993809;28;102472;-55
2022/10/12 06:55:27;;;;;;;26.13;24.27;;;;;;;16.83;72.32;102025.97;4988644;28;102256;-55
2022/10/12 06:57:54;;;;;;;27.42;25.63;;;;;;;16.85;72.43;102036.72;4994438;28;102659;-55
2022/10/12 07:00:21;;;;;;;25.83;24.10;;;;;;;16.86;72.71;102036.41;5001321;28;104520;-55
2022/10/12 07:02:51;;;;;;;26.00;24.10;;;;;;;16.87;72.89;102038.06;5015447;28;102090;-55
2022/10/12 07:05:19;;;;;;;27.75;25.85;;;;;;;16.89;73.13;102024.84;5002123;28;102511;-58
2022/10/12 07:07:47;;;;;;;27.90;21.77;;;;;;;16.75;68.99;102029.31;5007268;28;102251;-56
2022/10/12 07:10:16;;;;;;;26.38;23.83;;;;;;;16.83;72.11;102025.97;5002318;28;103977;-56
2022/10/12 07:12:42;;;;;;;29.10;23.73;;;;;;;16.83;72.20;102020.47;5001322;28;102318;-56
2022/10/12 07:15:09;;;;;;;29.35;26.63;;;;;;;16.86;72.04;102030.91;5003154;28;102007;-55
2022/10/12 07:17:37;;;;;;;25.03;22.73;;;;;;;16.87;71.15;102031.75;5014743;28;102267;-56
2022/10/12 07:20:06;;;;;;;25.80;23.27;;;;;;;16.88;70.86;102034.22;5013417;28;103854;-56
2022/10/12 07:22:33;;;;;;;25.90;23.20;;;;;;;16.89;71.12;102027.59;5007607;28;103121;-55
2022/10/12 07:25:01;;;;;;;25.13;22.70;;;;;;;16.91;70.93;102025.38;4995067;28;102392;-56
2022/10/12 07:27:27;;;;;;;26.13;23.83;;;;;;;16.93;70.51;102025.94;4995729;28;102154;-55
2022/10/12 07:29:54;;;;;;;25.52;23.15;;;;;;;16.93;70.75;102028.69;5011366;28;103974;-56
2022/10/12 07:32:21;;;;;;;27.67;24.58;;;;;;;16.96;70.98;102030.88;5014412;28;101967;-55
2022/10/12 07:34:49;;;;;;;24.37;22.27;;;;;;;16.97;70.76;102032.50;5013822;28;102044;-56
2022/10/12 07:37:16;;;;;;;26.65;24.25;;;;;;;16.99;70.33;102030.31;5015112;28;102555;-61
2022/10/12 07:39:43;;;;;;;27.15;24.55;;;;;;;17.00;70.49;102025.63;5014375;28;104036;-55
2022/10/12 07:42:11;;;;;;;24.88;22.77;;;;;;;17.03;70.35;102031.41;5014937;28;101965;-56
2022/10/12 07:44:37;;;;;;;24.65;22.58;;;;;;;17.04;70.67;102027.53;5014419;28;102714;-56
2022/10/12 07:47:04;;;;;;;24.23;22.23;;;;;;;17.05;70.80;102026.41;5015463;28;102508;-56
2022/10/12 07:49:30;;;;;;;24.95;22.98;;;;;;;17.08;70.25;102033.28;5013470;28;103916;-55
2022/10/12 07:51:57;;;;;;;26.08;23.58;;;;;;;17.09;70.35;102034.09;5014254;28;102176;-55
2022/10/12 07:54:23;;;;;;;25.63;23.02;;;;;;;17.10;70.89;102024.78;5014248;28;102306;-55
2022/10/12 07:56:50;;;;;;;26.55;24.25;;;;;;;17.12;70.54;102034.34;5011331;28;102663;-55
2022/10/12 07:59:18;;;;;;;25.25;23.20;;;;;;;17.13;70.64;102026.94;5003632;28;104193;-55
2022/10/12 08:01:44;;;;;;;23.85;21.88;;;;;;;17.15;70.54;102016.47;5007463;28;102201;-55
2022/10/12 08:04:11;;;;;;;22.13;20.52;;;;;;;17.15;70.57;102021.97;5006019;28;102070;-55
2022/10/12 08:06:42;;;;;;;24.33;22.05;;;;;;;17.15;70.54;102022.78;5012088;28;102168;-55
2022/10/12 08:09:09;;;;;;;24.00;22.05;;;;;;;17.17;70.66;102012.34;5012654;28;103834;-56
2022/10/12 08:11:37;;;;;;;25.80;23.70;;;;;;;17.18;70.99;102011.22;4998015;28;102317;-55
2022/10/12 08:14:04;;;;;;;24.65;22.77;;;;;;;17.18;70.51;102013.97;5005094;28;103443;-55
2022/10/12 08:16:32;;;;;;;25.58;23.83;;;;;;;17.21;71.17;102015.34;5015559;27;102428;-56
2022/10/12 08:18:59;;;;;;;22.70;20.60;;;;;;;17.21;71.27;102015.34;4987325;28;104204;-54
2022/10/12 08:21:25;;;;;;;25.30;23.42;;;;;;;17.22;71.00;102008.72;4998094;28;102236;-56
2022/10/12 08:23:52;;;;;;;24.38;22.27;;;;;;;17.22;71.26;102006.78;4996429;28;102037;-57
2022/10/12 08:26:19;;;;;;;24.70;22.45;;;;;;;17.24;71.21;102006.53;4997707;28;102273;-56
2022/10/12 08:28:45;;;;;;;23.90;22.10;;;;;;;17.24;71.32;102001.84;4996446;28;104878;-55
2022/10/12 08:31:14;;;;;;;24.15;22.52;;;;;;;17.25;70.93;102003.47;4997603;28;102357;-55
2022/10/12 08:33:42;;;;;;;;;;;;;;;17.26;70.95;102001.53;4980577;28;102346;-56
2022/10/12 08:36:10;;;;;;;22.45;20.65;;;;;;;17.27;71.19;102003.19;4982282;28;102374;-55
2022/10/12 08:38:37;;;;;;;;;;;;;;;17.29;70.87;102007.31;4977476;28;104269;-55
2022/10/12 08:41:19;;;;;;;20.55;19.02;;;;;;;17.30;70.81;101994.34;4983226;28;102293;-55
2022/10/12 08:44:14;;;;;;;23.08;21.45;;;;;;;17.30;71.37;102008.13;4976773;28;102319;-55
2022/10/12 08:46:41;;;;;;;23.83;22.15;;;;;;;17.31;70.91;102004.28;4988792;28;102213;-56
2022/10/12 08:49:13;;;;;;;24.02;22.23;;;;;;;17.30;70.87;101997.13;4995460;28;104101;-56
2022/10/12 08:51:46;;;;;;;24.52;22.85;;;;;;;17.32;71.36;101997.66;4988718;28;102018;-56
2022/10/12 08:54:16;;;;;;;24.40;22.50;;;;;;;17.33;71.03;102001.22;4996035;28;102186;-56
2022/10/12 08:56:44;;;;;;;23.95;22.27;;;;;;;17.34;70.96;102000.13;4993533;28;102432;-56
2022/10/12 08:59:13;;;;;;;24.58;22.80;;;;;;;17.34;71.00;102002.88;4984718;28;104190;-56
2022/10/12 09:01:56;;;;;;;24.63;22.88;;;;;;;17.34;71.30;102002.88;4988810;28;102433;-56
2022/10/12 09:04:38;;;;;;;22.00;20.30;;;;;;;17.37;71.10;101999.56;4996189;28;102620;-56
2022/10/12 09:07:10;;;;;;;24.30;22.70;;;;;;;17.37;70.70;101991.28;4996388;28;102326;-56
2022/10/12 09:09:54;;;;;;;22.55;20.95;;;;;;;17.37;71.11;101992.09;4989952;28;103573;-56
2022/10/12 09:12:36;;;;;;;22.80;21.23;;;;;;;17.38;70.80;101991.03;4985617;28;102325;-56
2022/10/12 09:15:10;;;;;;;24.75;22.90;;;;;;;17.37;70.72;101999.56;4987080;28;102451;-56
2022/10/12 09:17:40;;;;;;;23.92;22.25;;;;;;;17.38;70.81;101992.94;4985596;28;102757;-56
2022/10/12 09:20:17;;;;;;;23.23;21.63;;;;;;;17.37;70.99;101986.59;4976171;28;104734;-56
2022/10/12 09:22:47;;;;;;;22.50;20.90;;;;;;;17.38;70.59;101982.78;4991085;28;102395;-56
2022/10/12 09:25:15;;;;;;;23.23;21.65;;;;;;;17.36;70.93;101990.47;4996725;28;101970;-56
2022/10/12 09:27:44;;;;;;;24.27;22.73;;;;;;;17.36;71.31;101981.41;4991917;28;102577;-56
2022/10/12 09:30:13;;;;;;;24.33;22.65;;;;;;;17.36;71.07;101982.22;4988012;28;104181;-56
2022/10/12 09:33:10;;;;;;;23.92;22.38;;;;;;;17.36;71.12;101978.66;5004274;28;102022;-56
2022/10/12 09:35:46;;;;;;;23.27;21.70;;;;;;;17.36;70.59;101973.16;5002749;28;102348;-56
2022/10/12 09:38:14;;;;;;;22.23;20.65;;;;;;;17.35;71.02;101972.34;5002193;28;102717;-56
2022/10/12 09:40:41;;;;;;;22.48;20.95;;;;;;;17.35;70.98;101972.34;5001454;28;103947;-56
2022/10/12 09:43:08;;;;;;;24.42;22.73;;;;;;;17.36;70.59;101964.91;5006114;28;101971;-56
2022/10/12 09:45:36;;;;;;;21.70;20.27;;;;;;;17.36;70.69;101967.66;5008469;28;103666;-56
2022/10/12 09:48:25;;;;;;;21.38;19.98;;;;;;;17.34;70.61;101970.66;5014059;28;102426;-56
2022/10/12 09:50:57;;;;;;;23.13;21.33;;;;;;;17.34;70.85;101970.66;4999115;28;104131;-56
2022/10/12 09:53:31;;;;;;;22.05;20.60;;;;;;;17.35;71.02;101958.56;5001567;28;102445;-55
2022/10/12 09:56:02;;;;;;;21.10;19.63;;;;;;;17.34;70.72;101959.66;4997059;28;102393;-56
2022/10/12 09:58:34;;;;;;;23.45;21.88;;;;;;;17.35;71.01;101966.00;4997242;28;102310;-56
2022/10/12 10:01:25;;;;;;;22.52;21.08;;;;;;;17.32;71.02;101958.31;4996445;28;103977;-56
2022/10/12 10:04:14;;;;;;;21.05;19.75;;;;;;;17.31;70.69;101957.50;4990147;28;102412;-56
2022/10/12 10:06:44;;;;;;;21.88;20.58;;;;;;;17.32;70.77;101956.38;5000328;28;102086;-56
2022/10/12 10:09:28;;;;;;;22.67;21.15;;;;;;;17.32;70.38;101956.38;5000283;28;102963;-55
2022/10/12 10:11:55;;;;;;;22.80;21.37;;;;;;;17.32;70.77;101944.56;5009683;27;104947;-56
2022/10/12 10:14:22;;;;;;;22.17;20.67;;;;;;;17.31;70.89;101949.25;5012682;28;102608;-56
2022/10/12 10:16:50;;;;;;;24.52;22.80;;;;;;;17.31;70.71;101943.75;5014243;28;103574;-55
2022/10/12 10:19:23;;;;;;;22.02;20.67;;;;;;;17.31;70.79;101941.00;5010470;28;102183;-55
2022/10/12 10:21:54;;;;;;;21.20;19.92;;;;;;;17.31;70.92;101943.75;5014089;28;103988;-56
2022/10/12 10:24:26;;;;;;;22.73;21.02;;;;;;;17.30;70.86;101942.09;5004979;28;102300;-56
2022/10/12 10:26:55;;;;;;;22.15;20.63;;;;;;;17.30;70.54;101942.09;5003659;28;102360;-56
2022/10/12 10:29:44;;;;;;;24.10;22.50;;;;;;;17.29;70.32;101934.94;5004589;28;102485;-55
2022/10/12 10:32:25;;;;;;;22.92;21.38;;;;;;;17.27;70.64;101935.25;5013932;28;108039;-55
2022/10/12 10:35:03;;;;;;;23.55;22.05;;;;;;;17.28;70.90;101933.31;5001378;28;102323;-56
2022/10/12 10:37:32;;;;;;;;;;;;;;;17.27;70.30;101934.41;4999417;28;102423;-56
2022/10/12 10:39:59;;;;;;;20.38;19.08;;;;;;;17.27;70.45;101927.00;5004171;28;102422;-56
2022/10/12 10:42:28;;;;;;;20.02;18.73;;;;;;;17.26;70.58;101930.84;5007893;28;103683;-56
2022/10/12 10:44:59;;;;;;;;;;;;;;;17.26;70.48;101930.00;5007032;28;102542;-56
2022/10/12 10:47:26;;;;;;;20.10;18.90;;;;;;;17.26;70.74;101930.00;5004307;28;104662;-55
2022/10/12 10:49:58;;;;;;;22.83;21.15;;;;;;;17.25;70.46;101928.38;5013668;28;102216;-56
2022/10/12 10:52:27;;;;;;;23.27;21.77;;;;;;;17.25;70.53;101922.88;4995207;28;103946;-56
2022/10/12 10:55:16;;;;;;;19.67;18.38;;;;;;;17.24;70.62;101915.75;5006062;28;102559;-56
2022/10/12 10:57:48;;;;;;;22.27;20.77;;;;;;;17.23;70.60;101925.06;5012238;28;102362;-56
2022/10/12 11:00:18;;;;;;;22.35;20.95;;;;;;;17.23;70.62;101919.59;5008879;28;102587;-56
2022/10/12 11:02:51;;;;;;;21.10;19.65;;;;;;;17.23;70.19;101919.59;5012518;28;104181;-55
2022/10/12 11:05:22;;;;;;;20.38;19.15;;;;;;;17.23;70.35;101919.59;5005190;28;103170;-55
2022/10/12 11:07:52;;;;;;;21.70;20.40;;;;;;;17.22;70.29;101912.44;4998895;28;102178;-56
2022/10/12 11:10:27;;;;;;;22.00;20.65;;;;;;;17.21;70.48;101910.81;5002351;28;102213;-56
2022/10/12 11:13:02;;;;;;;21.05;19.73;;;;;;;17.22;70.29;101912.44;4995721;28;104240;-56
2022/10/12 11:15:33;;;;;;;21.88;20.55;;;;;;;17.23;70.20;101908.56;4996000;28;102494;-56